sensor_id;sensor_type;location;lat;lon;timestamp;P1;durP1;ratioP1;P2;durP2;ratioP2
69769;SDS011;57282;52.514;13.458;2022-11-15T00:00:49;36.67;;;17.00;;
69769;SDS011;57282;52.514;13.458;2022-11-15T00:03:16;35.88;;;16.67;;
69769;SDS011;57282;52.514;13.458;2022-11-15T00:05:44;34.92;;;16.63;;
69769;SDS011;57282;52.514;13.458;2022-11-15T00:08:12;37.63;;;16.90;;
69769;SDS011;57282;52.514;13.458;2022-11-15T00:10:39;32.85;;;16.38;;
69769;SDS011;57282;52.514;13.458;2022-11-15T00:13:06;33.63;;;16.27;;
69769;SDS011;57282;52.514;13.458;2022-11-15T00:15:35;35.15;;;15.88;;
69769;SDS011;57282;52.514;13.458;2022-11-15T00:18:02;35.88;;;17.10;;
69769;SDS011;57282;52.514;13.458;2022-11-15T00:20:30;32.73;;;17.00;;
69769;SDS011;57282;52.514;13.458;2022-11-15T00:22:57;34.22;;;16.85;;
69769;SDS011;57282;52.514;13.458;2022-11-15T00:25:23;35.33;;;15.77;;
69769;SDS011;57282;52.514;13.458;2022-11-15T00:27:54;34.33;;;16.48;;
69769;SDS011;57282;52.514;13.458;2022-11-15T00:30:22;34.25;;;16.20;;
69769;SDS011;57282;52.514;13.458;2022-11-15T00:32:52;36.73;;;16.83;;
69769;SDS011;57282;52.514;13.458;2022-11-15T00:35:18;34.58;;;17.05;;
69769;SDS011;57282;52.514;13.458;2022-11-15T00:37:46;32.67;;;15.35;;
69769;SDS011;57282;52.514;13.458;2022-11-15T00:40:13;33.58;;;15.55;;
69769;SDS011;57282;52.514;13.458;2022-11-15T00:42:40;36.03;;;15.68;;
69769;SDS011;57282;52.514;13.458;2022-11-15T00:45:07;35.07;;;16.93;;
69769;SDS011;57282;52.514;13.458;2022-11-15T00:47:35;35.58;;;17.05;;
69769;SDS011;57282;52.514;13.458;2022-11-15T00:50:05;34.17;;;16.52;;
69769;SDS011;57282;52.514;13.458;2022-11-15T00:52:32;33.38;;;15.55;;
69769;SDS011;57282;52.514;13.458;2022-11-15T00:54:59;32.92;;;15.93;;
69769;SDS011;57282;52.514;13.458;2022-11-15T00:57:25;38.07;;;16.53;;
69769;SDS011;57282;52.514;13.458;2022-11-15T00:59:52;33.58;;;16.13;;
69769;SDS011;57282;52.514;13.458;2022-11-15T01:02:19;38.63;;;15.82;;
69769;SDS011;57282;52.514;13.458;2022-11-15T01:04:45;33.70;;;16.48;;
69769;SDS011;57282;52.514;13.458;2022-11-15T01:07:13;33.72;;;16.55;;
69769;SDS011;57282;52.514;13.458;2022-11-15T01:09:40;37.63;;;16.20;;
69769;SDS011;57282;52.514;13.458;2022-11-15T01:12:07;37.17;;;16.45;;
69769;SDS011;57282;52.514;13.458;2022-11-15T01:14:33;34.58;;;17.17;;
69769;SDS011;57282;52.514;13.458;2022-11-15T01:17:00;31.48;;;16.48;;
69769;SDS011;57282;52.514;13.458;2022-11-15T01:19:27;34.25;;;16.45;;
69769;SDS011;57282;52.514;13.458;2022-11-15T01:21:53;34.23;;;15.57;;
69769;SDS011;57282;52.514;13.458;2022-11-15T01:24:21;34.83;;;16.17;;
69769;SDS011;57282;52.514;13.458;2022-11-15T01:26:48;32.80;;;15.45;;
69769;SDS011;57282;52.514;13.458;2022-11-15T01:29:14;35.42;;;15.75;;
69769;SDS011;57282;52.514;13.458;2022-11-15T01:31:41;33.08;;;16.30;;
69769;SDS011;57282;52.514;13.458;2022-11-15T01:34:09;34.13;;;15.53;;
69769;SDS011;57282;52.514;13.458;2022-11-15T01:36:36;33.78;;;15.70;;
69769;SDS011;57282;52.514;13.458;2022-11-15T01:39:03;33.88;;;15.75;;
69769;SDS011;57282;52.514;13.458;2022-11-15T01:41:31;32.45;;;15.73;;
69769;SDS011;57282;52.514;13.458;2022-11-15T01:47:06;33.00;;;16.07;;
69769;SDS011;57282;52.514;13.458;2022-11-15T01:49:38;36.22;;;14.82;;
69769;SDS011;57282;52.514;13.458;2022-11-15T01:52:14;33.47;;;16.05;;
69769;SDS011;57282;52.514;13.458;2022-11-15T01:54:46;31.95;;;14.82;;
69769;SDS011;57282;52.514;13.458;2022-11-15T01:57:18;35.75;;;16.58;;
69769;SDS011;57282;52.514;13.458;2022-11-15T01:59:45;33.00;;;14.83;;
69769;SDS011;57282;52.514;13.458;2022-11-15T02:02:13;32.90;;;16.10;;
69769;SDS011;57282;52.514;13.458;2022-11-15T02:04:41;32.80;;;16.15;;
69769;SDS011;57282;52.514;13.458;2022-11-15T02:07:09;34.97;;;16.63;;
69769;SDS011;57282;52.514;13.458;2022-11-15T02:09:41;32.03;;;15.30;;
69769;SDS011;57282;52.514;13.458;2022-11-15T02:12:09;35.67;;;16.27;;
69769;SDS011;57282;52.514;13.458;2022-11-15T02:14:41;37.47;;;16.90;;
69769;SDS011;57282;52.514;13.458;2022-11-15T02:17:18;35.33;;;16.42;;
69769;SDS011;57282;52.514;13.458;2022-11-15T02:20:13;35.67;;;16.63;;
69769;SDS011;57282;52.514;13.458;2022-11-15T02:23:28;32.78;;;15.93;;
69769;SDS011;57282;52.514;13.458;2022-11-15T02:26:51;33.50;;;15.40;;
69769;SDS011;57282;52.514;13.458;2022-11-15T02:30:12;38.15;;;15.82;;
69769;SDS011;57282;52.514;13.458;2022-11-15T02:32:46;34.65;;;16.23;;
69769;SDS011;57282;52.514;13.458;2022-11-15T02:35:21;34.45;;;16.05;;
69769;SDS011;57282;52.514;13.458;2022-11-15T02:38:04;33.85;;;15.57;;
69769;SDS011;57282;52.514;13.458;2022-11-15T02:40:41;36.47;;;15.83;;
69769;SDS011;57282;52.514;13.458;2022-11-15T02:43:21;35.33;;;15.45;;
69769;SDS011;57282;52.514;13.458;2022-11-15T02:46:14;33.22;;;15.85;;
69769;SDS011;57282;52.514;13.458;2022-11-15T02:49:08;32.80;;;15.35;;
69769;SDS011;57282;52.514;13.458;2022-11-15T02:51:37;36.10;;;15.85;;
69769;SDS011;57282;52.514;13.458;2022-11-15T02:54:06;33.17;;;16.37;;
69769;SDS011;57282;52.514;13.458;2022-11-15T02:56:38;34.67;;;15.80;;
69769;SDS011;57282;52.514;13.458;2022-11-15T02:59:08;37.20;;;16.60;;
69769;SDS011;57282;52.514;13.458;2022-11-15T03:01:58;34.20;;;16.33;;
69769;SDS011;57282;52.514;13.458;2022-11-15T03:04:42;36.08;;;16.08;;
69769;SDS011;57282;52.514;13.458;2022-11-15T03:07:19;34.27;;;15.27;;
69769;SDS011;57282;52.514;13.458;2022-11-15T03:09:57;35.03;;;16.73;;
69769;SDS011;57282;52.514;13.458;2022-11-15T03:12:34;35.03;;;15.57;;
69769;SDS011;57282;52.514;13.458;2022-11-15T03:15:10;35.42;;;16.75;;
69769;SDS011;57282;52.514;13.458;2022-11-15T03:17:51;34.05;;;16.45;;
69769;SDS011;57282;52.514;13.458;2022-11-15T03:20:26;32.73;;;15.63;;
69769;SDS011;57282;52.514;13.458;2022-11-15T03:22:55;35.00;;;15.85;;
69769;SDS011;57282;52.514;13.458;2022-11-15T03:25:30;36.65;;;16.17;;
69769;SDS011;57282;52.514;13.458;2022-11-15T03:28:03;35.50;;;16.17;;
69769;SDS011;57282;52.514;13.458;2022-11-15T03:30:34;37.15;;;15.85;;
69769;SDS011;57282;52.514;13.458;2022-11-15T03:33:06;35.87;;;15.53;;
69769;SDS011;57282;52.514;13.458;2022-11-15T03:35:37;33.58;;;16.77;;
69769;SDS011;57282;52.514;13.458;2022-11-15T03:38:11;34.05;;;16.20;;
69769;SDS011;57282;52.514;13.458;2022-11-15T03:40:49;35.83;;;16.23;;
69769;SDS011;57282;52.514;13.458;2022-11-15T03:43:29;34.53;;;15.48;;
69769;SDS011;57282;52.514;13.458;2022-11-15T03:46:04;32.50;;;15.23;;
69769;SDS011;57282;52.514;13.458;2022-11-15T03:48:39;37.42;;;15.73;;
69769;SDS011;57282;52.514;13.458;2022-11-15T03:51:13;33.53;;;15.85;;
69769;SDS011;57282;52.514;13.458;2022-11-15T03:53:41;37.20;;;16.67;;
69769;SDS011;57282;52.514;13.458;2022-11-15T03:56:08;33.78;;;15.05;;
69769;SDS011;57282;52.514;13.458;2022-11-15T03:58:35;35.67;;;16.27;;
69769;SDS011;57282;52.514;13.458;2022-11-15T04:01:01;32.50;;;15.57;;
69769;SDS011;57282;52.514;13.458;2022-11-15T04:03:28;33.47;;;15.73;;
69769;SDS011;57282;52.514;13.458;2022-11-15T04:05:57;36.53;;;15.73;;
69769;SDS011;57282;52.514;13.458;2022-11-15T04:08:23;37.33;;;16.90;;
69769;SDS011;57282;52.514;13.458;2022-11-15T04:10:50;36.17;;;16.67;;
69769;SDS011;57282;52.514;13.458;2022-11-15T04:13:17;32.95;;;14.95;;
69769;SDS011;57282;52.514;13.458;2022-11-15T04:15:44;34.50;;;15.10;;
69769;SDS011;57282;52.514;13.458;2022-11-15T04:18:10;36.38;;;16.40;;
69769;SDS011;57282;52.514;13.458;2022-11-15T04:20:37;31.85;;;15.05;;
69769;SDS011;57282;52.514;13.458;2022-11-15T04:23:23;33.70;;;16.77;;
69769;SDS011;57282;52.514;13.458;2022-11-15T04:26:08;36.25;;;15.65;;
69769;SDS011;57282;52.514;13.458;2022-11-15T04:28:38;36.55;;;16.13;;
69769;SDS011;57282;52.514;13.458;2022-11-15T04:31:25;38.75;;;16.20;;
69769;SDS011;57282;52.514;13.458;2022-11-15T04:33:53;34.47;;;16.55;;
69769;SDS011;57282;52.514;13.458;2022-11-15T04:36:20;30.80;;;15.17;;
69769;SDS011;57282;52.514;13.458;2022-11-15T04:39:07;32.45;;;15.68;;
69769;SDS011;57282;52.514;13.458;2022-11-15T04:41:33;34.00;;;15.57;;
69769;SDS011;57282;52.514;13.458;2022-11-15T04:44:00;33.92;;;14.70;;
69769;SDS011;57282;52.514;13.458;2022-11-15T04:46:27;35.90;;;16.33;;
69769;SDS011;57282;52.514;13.458;2022-11-15T04:48:54;35.33;;;17.03;;
69769;SDS011;57282;52.514;13.458;2022-11-15T04:51:21;36.20;;;16.63;;
69769;SDS011;57282;52.514;13.458;2022-11-15T04:53:48;37.05;;;16.38;;
69769;SDS011;57282;52.514;13.458;2022-11-15T04:56:16;33.90;;;16.70;;
69769;SDS011;57282;52.514;13.458;2022-11-15T04:58:42;36.78;;;16.65;;
69769;SDS011;57282;52.514;13.458;2022-11-15T05:01:09;35.90;;;15.60;;
69769;SDS011;57282;52.514;13.458;2022-11-15T05:03:39;35.22;;;16.45;;
69769;SDS011;57282;52.514;13.458;2022-11-15T05:06:20;33.85;;;15.77;;
69769;SDS011;57282;52.514;13.458;2022-11-15T05:08:47;35.40;;;16.23;;
69769;SDS011;57282;52.514;13.458;2022-11-15T05:11:15;34.58;;;16.02;;
69769;SDS011;57282;52.514;13.458;2022-11-15T05:13:42;33.10;;;16.13;;
69769;SDS011;57282;52.514;13.458;2022-11-15T05:16:09;34.95;;;15.98;;
69769;SDS011;57282;52.514;13.458;2022-11-15T05:18:36;33.28;;;14.75;;
69769;SDS011;57282;52.514;13.458;2022-11-15T05:21:07;35.47;;;16.10;;
69769;SDS011;57282;52.514;13.458;2022-11-15T05:23:37;33.65;;;16.10;;
69769;SDS011;57282;52.514;13.458;2022-11-15T05:26:05;33.63;;;16.33;;
69769;SDS011;57282;52.514;13.458;2022-11-15T05:28:36;32.92;;;15.65;;
69769;SDS011;57282;52.514;13.458;2022-11-15T05:31:03;35.40;;;14.82;;
69769;SDS011;57282;52.514;13.458;2022-11-15T05:33:33;37.03;;;16.15;;
69769;SDS011;57282;52.514;13.458;2022-11-15T05:36:02;34.33;;;17.30;;
69769;SDS011;57282;52.514;13.458;2022-11-15T05:38:35;39.03;;;17.57;;
69769;SDS011;57282;52.514;13.458;2022-11-15T05:41:03;34.83;;;15.60;;
69769;SDS011;57282;52.514;13.458;2022-11-15T05:43:32;34.42;;;16.05;;
69769;SDS011;57282;52.514;13.458;2022-11-15T05:46:05;39.58;;;18.17;;
69769;SDS011;57282;52.514;13.458;2022-11-15T05:48:32;36.40;;;16.38;;
69769;SDS011;57282;52.514;13.458;2022-11-15T05:51:02;35.67;;;17.70;;
69769;SDS011;57282;52.514;13.458;2022-11-15T05:53:32;36.90;;;17.60;;
69769;SDS011;57282;52.514;13.458;2022-11-15T05:56:01;38.42;;;17.08;;
69769;SDS011;57282;52.514;13.458;2022-11-15T05:58:30;34.72;;;16.00;;
69769;SDS011;57282;52.514;13.458;2022-11-15T06:00:59;34.70;;;16.17;;
69769;SDS011;57282;52.514;13.458;2022-11-15T06:03:26;33.13;;;15.90;;
69769;SDS011;57282;52.514;13.458;2022-11-15T06:05:53;36.88;;;16.25;;
69769;SDS011;57282;52.514;13.458;2022-11-15T06:08:20;36.30;;;16.35;;
69769;SDS011;57282;52.514;13.458;2022-11-15T06:10:46;33.58;;;15.82;;
69769;SDS011;57282;52.514;13.458;2022-11-15T06:13:13;36.83;;;15.75;;
69769;SDS011;57282;52.514;13.458;2022-11-15T06:15:40;38.23;;;17.27;;
69769;SDS011;57282;52.514;13.458;2022-11-15T06:18:08;37.10;;;15.32;;
69769;SDS011;57282;52.514;13.458;2022-11-15T06:20:35;36.67;;;15.85;;
69769;SDS011;57282;52.514;13.458;2022-11-15T06:23:02;38.03;;;16.85;;
69769;SDS011;57282;52.514;13.458;2022-11-15T06:25:30;37.25;;;17.10;;
69769;SDS011;57282;52.514;13.458;2022-11-15T06:27:59;35.93;;;15.73;;
69769;SDS011;57282;52.514;13.458;2022-11-15T06:30:28;35.67;;;16.63;;
69769;SDS011;57282;52.514;13.458;2022-11-15T06:32:58;32.75;;;15.60;;
69769;SDS011;57282;52.514;13.458;2022-11-15T06:35:29;36.30;;;16.02;;
69769;SDS011;57282;52.514;13.458;2022-11-15T06:38:01;36.70;;;16.65;;
69769;SDS011;57282;52.514;13.458;2022-11-15T06:40:32;37.27;;;16.43;;
69769;SDS011;57282;52.514;13.458;2022-11-15T06:43:00;35.33;;;16.75;;
69769;SDS011;57282;52.514;13.458;2022-11-15T06:45:28;35.30;;;16.42;;
69769;SDS011;57282;52.514;13.458;2022-11-15T06:47:55;36.70;;;15.93;;
69769;SDS011;57282;52.514;13.458;2022-11-15T06:50:21;35.10;;;15.98;;
69769;SDS011;57282;52.514;13.458;2022-11-15T06:52:50;32.13;;;15.03;;
69769;SDS011;57282;52.514;13.458;2022-11-15T06:55:16;34.30;;;16.30;;
69769;SDS011;57282;52.514;13.458;2022-11-15T06:57:46;33.08;;;15.77;;
69769;SDS011;57282;52.514;13.458;2022-11-15T07:00:15;34.25;;;16.00;;
69769;SDS011;57282;52.514;13.458;2022-11-15T07:02:44;36.85;;;17.80;;
69769;SDS011;57282;52.514;13.458;2022-11-15T07:05:11;36.97;;;16.60;;
69769;SDS011;57282;52.514;13.458;2022-11-15T07:07:40;33.88;;;16.17;;
69769;SDS011;57282;52.514;13.458;2022-11-15T07:10:08;30.80;;;15.82;;
69769;SDS011;57282;52.514;13.458;2022-11-15T07:12:36;34.80;;;15.85;;
69769;SDS011;57282;52.514;13.458;2022-11-15T07:15:03;38.53;;;14.73;;
69769;SDS011;57282;52.514;13.458;2022-11-15T07:17:31;35.03;;;15.87;;
69769;SDS011;57282;52.514;13.458;2022-11-15T07:19:58;36.50;;;15.27;;
69769;SDS011;57282;52.514;13.458;2022-11-15T07:22:24;34.72;;;16.00;;
69769;SDS011;57282;52.514;13.458;2022-11-15T07:24:51;35.15;;;15.13;;
69769;SDS011;57282;52.514;13.458;2022-11-15T07:27:19;33.35;;;15.00;;
69769;SDS011;57282;52.514;13.458;2022-11-15T07:29:46;35.53;;;15.77;;
69769;SDS011;57282;52.514;13.458;2022-11-15T07:32:12;34.90;;;16.42;;
69769;SDS011;57282;52.514;13.458;2022-11-15T07:34:39;35.20;;;16.23;;
69769;SDS011;57282;52.514;13.458;2022-11-15T07:37:06;35.42;;;16.33;;
69769;SDS011;57282;52.514;13.458;2022-11-15T07:39:32;33.58;;;16.77;;
69769;SDS011;57282;52.514;13.458;2022-11-15T07:41:59;34.33;;;16.67;;
69769;SDS011;57282;52.514;13.458;2022-11-15T07:44:44;35.92;;;15.23;;
69769;SDS011;57282;52.514;13.458;2022-11-15T07:47:12;36.38;;;16.98;;
69769;SDS011;57282;52.514;13.458;2022-11-15T07:49:39;42.08;;;17.10;;
69769;SDS011;57282;52.514;13.458;2022-11-15T07:52:06;42.92;;;18.13;;
69769;SDS011;57282;52.514;13.458;2022-11-15T07:54:32;38.17;;;16.77;;
69769;SDS011;57282;52.514;13.458;2022-11-15T07:56:59;35.70;;;15.57;;
69769;SDS011;57282;52.514;13.458;2022-11-15T07:59:26;35.90;;;16.50;;
69769;SDS011;57282;52.514;13.458;2022-11-15T08:01:54;42.35;;;16.63;;
69769;SDS011;57282;52.514;13.458;2022-11-15T08:04:20;35.35;;;16.70;;
69769;SDS011;57282;52.514;13.458;2022-11-15T08:06:48;33.53;;;15.97;;
69769;SDS011;57282;52.514;13.458;2022-11-15T08:09:15;35.13;;;16.15;;
69769;SDS011;57282;52.514;13.458;2022-11-15T08:11:41;41.75;;;18.23;;
69769;SDS011;57282;52.514;13.458;2022-11-15T08:14:08;38.67;;;16.48;;
69769;SDS011;57282;52.514;13.458;2022-11-15T08:16:35;40.92;;;17.50;;
69769;SDS011;57282;52.514;13.458;2022-11-15T08:19:03;34.53;;;17.17;;
69769;SDS011;57282;52.514;13.458;2022-11-15T08:21:30;37.08;;;16.98;;
69769;SDS011;57282;52.514;13.458;2022-11-15T08:23:56;39.92;;;18.27;;
69769;SDS011;57282;52.514;13.458;2022-11-15T08:26:23;37.42;;;17.42;;
69769;SDS011;57282;52.514;13.458;2022-11-15T08:28:54;36.53;;;16.35;;
69769;SDS011;57282;52.514;13.458;2022-11-15T08:31:20;39.57;;;16.30;;
69769;SDS011;57282;52.514;13.458;2022-11-15T08:33:47;36.58;;;16.05;;
69769;SDS011;57282;52.514;13.458;2022-11-15T08:36:16;34.33;;;15.48;;
69769;SDS011;57282;52.514;13.458;2022-11-15T08:38:43;37.60;;;16.88;;
69769;SDS011;57282;52.514;13.458;2022-11-15T08:41:11;34.60;;;15.90;;
69769;SDS011;57282;52.514;13.458;2022-11-15T08:43:43;37.67;;;16.20;;
69769;SDS011;57282;52.514;13.458;2022-11-15T08:46:10;33.20;;;15.88;;
69769;SDS011;57282;52.514;13.458;2022-11-15T08:48:39;36.70;;;15.75;;
69769;SDS011;57282;52.514;13.458;2022-11-15T08:51:06;35.10;;;15.57;;
69769;SDS011;57282;52.514;13.458;2022-11-15T08:53:34;36.80;;;16.10;;
69769;SDS011;57282;52.514;13.458;2022-11-15T08:56:01;35.37;;;16.20;;
69769;SDS011;57282;52.514;13.458;2022-11-15T08:58:28;31.88;;;16.13;;
69769;SDS011;57282;52.514;13.458;2022-11-15T09:00:55;38.97;;;17.05;;
69769;SDS011;57282;52.514;13.458;2022-11-15T09:03:21;34.08;;;15.18;;
69769;SDS011;57282;52.514;13.458;2022-11-15T09:05:48;36.53;;;17.45;;
69769;SDS011;57282;52.514;13.458;2022-11-15T09:08:19;40.73;;;18.00;;
69769;SDS011;57282;52.514;13.458;2022-11-15T09:10:47;38.33;;;16.70;;
69769;SDS011;57282;52.514;13.458;2022-11-15T09:13:14;37.47;;;16.52;;
69769;SDS011;57282;52.514;13.458;2022-11-15T09:15:41;35.00;;;17.13;;
69769;SDS011;57282;52.514;13.458;2022-11-15T09:18:08;33.05;;;16.45;;
69769;SDS011;57282;52.514;13.458;2022-11-15T09:20:35;31.60;;;15.03;;
69769;SDS011;57282;52.514;13.458;2022-11-15T09:23:03;33.25;;;16.38;;
69769;SDS011;57282;52.514;13.458;2022-11-15T09:25:31;37.17;;;16.10;;
69769;SDS011;57282;52.514;13.458;2022-11-15T09:28:00;36.25;;;17.20;;
69769;SDS011;57282;52.514;13.458;2022-11-15T09:30:26;29.63;;;14.75;;
69769;SDS011;57282;52.514;13.458;2022-11-15T09:32:53;31.40;;;15.10;;
69769;SDS011;57282;52.514;13.458;2022-11-15T09:35:20;36.85;;;16.38;;
69769;SDS011;57282;52.514;13.458;2022-11-15T09:37:46;35.42;;;17.00;;
69769;SDS011;57282;52.514;13.458;2022-11-15T09:40:13;37.20;;;16.00;;
69769;SDS011;57282;52.514;13.458;2022-11-15T09:45:54;12.60;;;6.83;;
69769;SDS011;57282;52.514;13.458;2022-11-15T09:48:39;15.25;;;7.43;;
69769;SDS011;57282;52.514;13.458;2022-11-15T09:51:19;15.88;;;8.70;;
69769;SDS011;57282;52.514;13.458;2022-11-15T09:53:56;18.08;;;9.85;;
69769;SDS011;57282;52.514;13.458;2022-11-15T09:56:35;19.98;;;10.85;;
69769;SDS011;57282;52.514;13.458;2022-11-15T09:59:10;21.20;;;11.20;;
69769;SDS011;57282;52.514;13.458;2022-11-15T10:01:56;24.52;;;11.38;;
69769;SDS011;57282;52.514;13.458;2022-11-15T10:04:35;26.15;;;11.05;;
69769;SDS011;57282;52.514;13.458;2022-11-15T10:07:05;21.27;;;11.38;;
69769;SDS011;57282;52.514;13.458;2022-11-15T10:09:44;23.15;;;11.45;;
69769;SDS011;57282;52.514;13.458;2022-11-15T10:12:18;27.33;;;12.40;;
69769;SDS011;57282;52.514;13.458;2022-11-15T10:14:46;23.23;;;11.48;;
69769;SDS011;57282;52.514;13.458;2022-11-15T10:20:28;23.80;;;12.60;;
69769;SDS011;57282;52.514;13.458;2022-11-15T10:23:02;24.77;;;13.13;;
69769;SDS011;57282;52.514;13.458;2022-11-15T10:25:36;24.83;;;13.67;;
69769;SDS011;57282;52.514;13.458;2022-11-15T10:28:06;28.38;;;13.35;;
69769;SDS011;57282;52.514;13.458;2022-11-15T10:30:42;22.10;;;11.50;;
69769;SDS011;57282;52.514;13.458;2022-11-15T10:33:13;27.83;;;12.68;;
69769;SDS011;57282;52.514;13.458;2022-11-15T10:38:55;23.00;;;11.43;;
69769;SDS011;57282;52.514;13.458;2022-11-15T10:41:36;22.90;;;11.07;;
69769;SDS011;57282;52.514;13.458;2022-11-15T10:44:17;23.38;;;11.65;;
69769;SDS011;57282;52.514;13.458;2022-11-15T10:47:04;24.17;;;11.88;;
69769;SDS011;57282;52.514;13.458;2022-11-15T10:49:57;21.80;;;10.85;;
69769;SDS011;57282;52.514;13.458;2022-11-15T10:52:27;27.00;;;11.70;;
69769;SDS011;57282;52.514;13.458;2022-11-15T10:54:59;25.42;;;12.70;;
69769;SDS011;57282;52.514;13.458;2022-11-15T10:57:56;24.58;;;12.60;;
69769;SDS011;57282;52.514;13.458;2022-11-15T11:00:30;23.65;;;11.23;;
69769;SDS011;57282;52.514;13.458;2022-11-15T11:03:05;21.83;;;10.43;;
69769;SDS011;57282;52.514;13.458;2022-11-15T11:06:02;23.97;;;10.83;;
69769;SDS011;57282;52.514;13.458;2022-11-15T11:08:32;22.88;;;10.20;;
69769;SDS011;57282;52.514;13.458;2022-11-15T11:11:00;23.67;;;11.02;;
69769;SDS011;57282;52.514;13.458;2022-11-15T11:13:29;21.38;;;9.63;;
69769;SDS011;57282;52.514;13.458;2022-11-15T11:16:01;19.13;;;9.60;;
69769;SDS011;57282;52.514;13.458;2022-11-15T11:18:51;23.90;;;12.73;;
69769;SDS011;57282;52.514;13.458;2022-11-15T11:21:34;30.85;;;14.27;;
69769;SDS011;57282;52.514;13.458;2022-11-15T11:24:14;24.20;;;12.23;;
69769;SDS011;57282;52.514;13.458;2022-11-15T11:26:59;22.13;;;10.63;;
69769;SDS011;57282;52.514;13.458;2022-11-15T11:29:56;20.33;;;9.82;;
69769;SDS011;57282;52.514;13.458;2022-11-15T11:32:50;18.03;;;10.17;;
69769;SDS011;57282;52.514;13.458;2022-11-15T11:35:34;20.38;;;9.93;;
69769;SDS011;57282;52.514;13.458;2022-11-15T11:38:19;16.25;;;8.80;;
69769;SDS011;57282;52.514;13.458;2022-11-15T11:41:00;22.20;;;11.15;;
69769;SDS011;57282;52.514;13.458;2022-11-15T11:43:45;29.23;;;13.98;;
69769;SDS011;57282;52.514;13.458;2022-11-15T11:46:38;24.40;;;10.50;;
69769;SDS011;57282;52.514;13.458;2022-11-15T11:49:16;23.20;;;10.27;;
69769;SDS011;57282;52.514;13.458;2022-11-15T11:51:53;25.35;;;9.18;;
69769;SDS011;57282;52.514;13.458;2022-11-15T11:54:29;18.02;;;8.80;;
69769;SDS011;57282;52.514;13.458;2022-11-15T11:57:05;21.13;;;10.02;;
69769;SDS011;57282;52.514;13.458;2022-11-15T11:59:43;23.07;;;10.73;;
69769;SDS011;57282;52.514;13.458;2022-11-15T12:02:18;23.05;;;10.50;;
69769;SDS011;57282;52.514;13.458;2022-11-15T12:04:56;19.50;;;9.63;;
69769;SDS011;57282;52.514;13.458;2022-11-15T12:07:35;24.02;;;10.23;;
69769;SDS011;57282;52.514;13.458;2022-11-15T12:10:11;26.15;;;11.40;;
69769;SDS011;57282;52.514;13.458;2022-11-15T12:12:49;22.77;;;10.80;;
69769;SDS011;57282;52.514;13.458;2022-11-15T12:15:25;24.23;;;11.25;;
69769;SDS011;57282;52.514;13.458;2022-11-15T12:17:57;19.40;;;9.40;;
69769;SDS011;57282;52.514;13.458;2022-11-15T12:20:27;23.05;;;12.05;;
69769;SDS011;57282;52.514;13.458;2022-11-15T12:23:03;22.90;;;11.38;;
69769;SDS011;57282;52.514;13.458;2022-11-15T12:25:40;25.20;;;12.27;;
69769;SDS011;57282;52.514;13.458;2022-11-15T12:28:15;21.83;;;10.98;;
69769;SDS011;57282;52.514;13.458;2022-11-15T12:30:55;22.05;;;10.85;;
69769;SDS011;57282;52.514;13.458;2022-11-15T12:33:30;23.55;;;11.27;;
69769;SDS011;57282;52.514;13.458;2022-11-15T12:36:03;18.27;;;9.55;;
69769;SDS011;57282;52.514;13.458;2022-11-15T12:38:53;21.63;;;9.53;;
69769;SDS011;57282;52.514;13.458;2022-11-15T12:41:23;22.45;;;10.23;;
69769;SDS011;57282;52.514;13.458;2022-11-15T12:43:52;20.00;;;9.77;;
69769;SDS011;57282;52.514;13.458;2022-11-15T12:46:21;22.38;;;9.88;;
69769;SDS011;57282;52.514;13.458;2022-11-15T12:49:08;20.48;;;8.90;;
69769;SDS011;57282;52.514;13.458;2022-11-15T12:54:54;23.70;;;11.50;;
69769;SDS011;57282;52.514;13.458;2022-11-15T12:57:31;20.67;;;10.50;;
69769;SDS011;57282;52.514;13.458;2022-11-15T13:00:26;20.20;;;10.23;;
69769;SDS011;57282;52.514;13.458;2022-11-15T13:18:29;19.80;;;9.15;;
69769;SDS011;57282;52.514;13.458;2022-11-15T13:21:04;19.10;;;9.43;;
69769;SDS011;57282;52.514;13.458;2022-11-15T13:24:03;18.42;;;9.30;;
69769;SDS011;57282;52.514;13.458;2022-11-15T13:26:34;16.55;;;8.98;;
69769;SDS011;57282;52.514;13.458;2022-11-15T13:29:17;13.35;;;7.55;;
69769;SDS011;57282;52.514;13.458;2022-11-15T13:31:46;19.77;;;9.20;;
69769;SDS011;57282;52.514;13.458;2022-11-15T13:34:17;20.37;;;9.10;;
69769;SDS011;57282;52.514;13.458;2022-11-15T13:36:52;17.67;;;9.13;;
69769;SDS011;57282;52.514;13.458;2022-11-15T13:39:25;18.88;;;9.68;;
69769;SDS011;57282;52.514;13.458;2022-11-15T13:41:56;16.75;;;8.05;;
69769;SDS011;57282;52.514;13.458;2022-11-15T13:44:24;15.13;;;8.25;;
69769;SDS011;57282;52.514;13.458;2022-11-15T13:47:00;15.77;;;8.27;;
69769;SDS011;57282;52.514;13.458;2022-11-15T13:49:30;14.32;;;7.32;;
69769;SDS011;57282;52.514;13.458;2022-11-15T13:51:58;16.52;;;8.30;;
69769;SDS011;57282;52.514;13.458;2022-11-15T13:54:29;20.15;;;8.95;;
69769;SDS011;57282;52.514;13.458;2022-11-15T13:57:02;17.60;;;9.02;;
69769;SDS011;57282;52.514;13.458;2022-11-15T13:59:35;17.13;;;9.50;;
69769;SDS011;57282;52.514;13.458;2022-11-15T14:02:11;20.67;;;10.15;;
69769;SDS011;57282;52.514;13.458;2022-11-15T14:04:45;16.05;;;9.93;;
69769;SDS011;57282;52.514;13.458;2022-11-15T14:07:17;12.18;;;6.43;;
69769;SDS011;57282;52.514;13.458;2022-11-15T14:09:47;12.35;;;6.93;;
69769;SDS011;57282;52.514;13.458;2022-11-15T14:12:28;14.70;;;6.87;;
69769;SDS011;57282;52.514;13.458;2022-11-15T14:14:58;14.70;;;7.03;;
69769;SDS011;57282;52.514;13.458;2022-11-15T14:17:34;14.30;;;7.30;;
69769;SDS011;57282;52.514;13.458;2022-11-15T14:22:58;18.58;;;7.90;;
69769;SDS011;57282;52.514;13.458;2022-11-15T14:25:27;13.77;;;8.00;;
69769;SDS011;57282;52.514;13.458;2022-11-15T14:28:15;15.88;;;8.48;;
69769;SDS011;57282;52.514;13.458;2022-11-15T14:30:58;17.48;;;8.98;;
69769;SDS011;57282;52.514;13.458;2022-11-15T14:33:27;21.42;;;9.68;;
69769;SDS011;57282;52.514;13.458;2022-11-15T14:35:58;20.58;;;9.35;;
69769;SDS011;57282;52.514;13.458;2022-11-15T14:38:31;15.80;;;8.33;;
69769;SDS011;57282;52.514;13.458;2022-11-15T14:40:59;17.52;;;9.40;;
69769;SDS011;57282;52.514;13.458;2022-11-15T14:43:27;15.45;;;9.13;;
69769;SDS011;57282;52.514;13.458;2022-11-15T14:45:54;15.80;;;9.45;;
69769;SDS011;57282;52.514;13.458;2022-11-15T14:48:20;14.98;;;8.38;;
69769;SDS011;57282;52.514;13.458;2022-11-15T14:50:47;16.57;;;8.87;;
69769;SDS011;57282;52.514;13.458;2022-11-15T14:53:15;17.25;;;8.80;;
69769;SDS011;57282;52.514;13.458;2022-11-15T14:55:44;18.33;;;9.45;;
69769;SDS011;57282;52.514;13.458;2022-11-15T14:58:11;20.58;;;9.80;;
69769;SDS011;57282;52.514;13.458;2022-11-15T15:00:40;17.13;;;9.90;;
69769;SDS011;57282;52.514;13.458;2022-11-15T15:03:07;18.67;;;9.30;;
69769;SDS011;57282;52.514;13.458;2022-11-15T15:05:36;17.48;;;9.10;;
69769;SDS011;57282;52.514;13.458;2022-11-15T15:08:05;15.63;;;8.95;;
69769;SDS011;57282;52.514;13.458;2022-11-15T15:10:34;21.52;;;9.35;;
69769;SDS011;57282;52.514;13.458;2022-11-15T15:13:03;25.58;;;11.32;;